createdAt,value
2018-11-21T00:01:53.198Z,27.17
2018-11-21T00:04:22.353Z,26.17
2018-11-21T00:06:50.653Z,27.30
2018-11-21T00:09:19.348Z,27.20
2018-11-21T00:11:47.637Z,25.23
2018-11-21T00:14:15.971Z,27.00
2018-11-21T00:16:44.262Z,27.27
2018-11-21T00:19:12.591Z,27.67
2018-11-21T00:21:41.973Z,26.87
2018-11-21T00:24:10.306Z,26.90
2018-11-21T00:26:38.613Z,26.90
2018-11-21T00:29:07.105Z,27.70
2018-11-21T00:31:35.399Z,27.90
2018-11-21T00:34:03.702Z,27.87
2018-11-21T00:36:32.921Z,27.27
2018-11-21T00:39:01.604Z,28.70
2018-11-21T00:41:29.950Z,26.97
2018-11-21T00:43:58.246Z,25.53
2018-11-21T00:46:26.571Z,26.90
2018-11-21T00:48:55.294Z,25.90
2018-11-21T00:51:23.930Z,26.93
2018-11-21T00:53:53.333Z,26.80
2018-11-21T00:56:21.658Z,26.13
2018-11-21T00:58:50.854Z,27.43
2018-11-21T01:01:19.595Z,27.33
2018-11-21T01:03:48.319Z,26.60
2018-11-21T01:06:16.759Z,26.73
2018-11-21T01:08:45.064Z,27.30
2018-11-21T01:11:13.721Z,26.97
2018-11-21T01:13:42.016Z,26.90
2018-11-21T01:16:10.390Z,27.90
2018-11-21T01:18:38.688Z,28.50
2018-11-21T01:21:07.012Z,28.27
2018-11-21T01:23:35.309Z,29.63
2018-11-21T01:26:03.994Z,28.53
2018-11-21T01:28:32.375Z,26.90
2018-11-21T01:31:00.704Z,27.97
2018-11-21T01:33:29.028Z,27.53
2018-11-21T01:35:57.358Z,27.30
2018-11-21T01:38:26.907Z,27.07
2018-11-21T01:40:55.231Z,26.77
2018-11-21T01:43:23.528Z,26.53
2018-11-21T01:45:53.034Z,27.63
2018-11-21T01:48:21.344Z,28.47
2018-11-21T01:50:49.668Z,29.23
2018-11-21T01:53:17.963Z,28.37
2018-11-21T01:55:46.289Z,28.47
2018-11-21T01:58:14.665Z,28.93
2018-11-21T02:00:42.960Z,28.53
2018-11-21T02:03:11.772Z,29.20
2018-11-21T02:05:40.153Z,28.77
2018-11-21T02:08:08.851Z,29.40
2018-11-21T02:10:37.156Z,29.77
2018-11-21T02:13:07.510Z,29.57
2018-11-21T02:15:36.159Z,28.70
2018-11-21T02:18:04.952Z,29.70
2018-11-21T02:20:33.544Z,30.37
2018-11-21T02:23:02.744Z,29.03
2018-11-21T02:25:31.792Z,29.80
2018-11-21T02:28:00.128Z,29.07
2018-11-21T02:30:28.425Z,29.23
2018-11-21T02:32:58.972Z,29.17
2018-11-21T02:35:27.230Z,29.57
2018-11-21T02:37:55.803Z,31.13
2018-11-21T02:40:24.101Z,29.57
2018-11-21T02:42:52.795Z,30.33
2018-11-21T02:45:21.095Z,29.33
2018-11-21T02:47:49.799Z,31.10
2018-11-21T02:50:18.384Z,30.87
2018-11-21T02:52:49.186Z,29.87
2018-11-21T02:55:15.439Z,30.10
2018-11-21T02:57:44.125Z,30.40
2018-11-21T03:00:25.459Z,29.30
2018-11-21T03:02:53.859Z,29.17
2018-11-21T03:05:22.195Z,29.93
2018-11-21T03:07:58.324Z,29.07
2018-11-21T03:10:27.084Z,26.97
2018-11-21T03:12:56.368Z,28.70
2018-11-21T03:15:24.744Z,29.67
2018-11-21T03:17:53.053Z,29.47
2018-11-21T03:20:21.815Z,29.47
2018-11-21T03:22:50.126Z,29.97
2018-11-21T03:25:19.292Z,29.37
2018-11-21T03:27:48.376Z,29.70
2018-11-21T03:30:17.002Z,30.60
2018-11-21T03:32:45.730Z,31.67
2018-11-21T03:35:14.067Z,30.83
2018-11-21T03:37:42.371Z,30.80
2018-11-21T03:40:11.954Z,29.57
2018-11-21T03:42:40.717Z,31.33
2018-11-21T03:45:10.416Z,30.47
2018-11-21T03:47:38.731Z,29.83
2018-11-21T03:50:09.038Z,29.43
2018-11-21T03:52:37.713Z,28.60
2018-11-21T03:55:06.602Z,29.77
2018-11-21T03:57:34.914Z,28.30
2018-11-21T04:00:03.341Z,29.50
2018-11-21T04:02:31.644Z,29.90
2018-11-21T04:04:59.977Z,28.73
2018-11-21T04:07:28.298Z,29.73
2018-11-21T04:09:56.644Z,28.77
2018-11-21T04:12:25.003Z,29.90
2018-11-21T04:14:53.380Z,28.83
2018-11-21T04:17:21.767Z,29.23
2018-11-21T04:19:50.091Z,29.97
2018-11-21T04:22:18.745Z,30.20
2018-11-21T04:24:47.528Z,29.60
2018-11-21T04:27:15.833Z,27.73
2018-11-21T04:29:44.161Z,29.90
2018-11-21T04:32:12.846Z,28.40
2018-11-21T04:34:41.899Z,28.90
2018-11-21T04:37:10.552Z,28.73
2018-11-21T04:39:39.748Z,30.47
2018-11-21T04:42:08.585Z,28.60
2018-11-21T04:44:37.149Z,29.43
2018-11-21T04:47:05.490Z,30.37
2018-11-21T04:49:33.825Z,30.43
2018-11-21T04:52:02.315Z,31.63
2018-11-21T04:54:30.640Z,31.23
2018-11-21T04:56:58.957Z,30.90
2018-11-21T04:59:27.624Z,31.00
2018-11-21T05:01:55.925Z,30.97
2018-11-21T05:04:24.254Z,30.10
2018-11-21T05:06:52.918Z,28.93
2018-11-21T05:09:21.271Z,29.67
2018-11-21T05:11:49.578Z,27.60
2018-11-21T05:14:17.910Z,28.80
2018-11-21T05:16:46.581Z,30.63
2018-11-21T05:19:15.266Z,29.53
2018-11-21T05:21:43.906Z,28.30
2018-11-21T05:24:12.234Z,29.27
2018-11-21T05:26:40.536Z,29.77
2018-11-21T05:29:08.868Z,30.20
2018-11-21T05:31:37.564Z,30.60
2018-11-21T05:34:05.917Z,30.10
2018-11-21T05:36:34.248Z,31.43
2018-11-21T05:39:02.554Z,29.20
2018-11-21T05:41:30.884Z,30.23
2018-11-21T05:43:59.193Z,30.40
2018-11-21T05:46:27.529Z,29.93
2018-11-21T05:48:56.225Z,29.90
2018-11-21T05:51:24.549Z,29.03
2018-11-21T05:53:52.877Z,29.57
2018-11-21T05:56:21.619Z,30.50
2018-11-21T05:58:50.308Z,28.47
2018-11-21T06:01:19.015Z,30.13
2018-11-21T06:03:47.312Z,31.23
2018-11-21T06:06:15.668Z,29.47
2018-11-21T06:08:44.820Z,29.40
2018-11-21T06:11:13.145Z,29.83
2018-11-21T06:13:41.885Z,29.13
2018-11-21T06:16:10.583Z,31.37
2018-11-21T06:18:38.895Z,30.60
2018-11-21T06:21:07.654Z,30.67
2018-11-21T06:23:35.965Z,30.20
2018-11-21T06:26:04.922Z,31.47
2018-11-21T06:28:33.606Z,28.63
2018-11-21T06:31:02.297Z,30.17
2018-11-21T06:33:30.695Z,28.93
2018-11-21T06:35:59.098Z,29.10
2018-11-21T06:38:27.418Z,31.30
2018-11-21T06:40:55.832Z,29.97
2018-11-21T06:43:25.246Z,32.33
2018-11-21T06:45:53.578Z,32.60
2018-11-21T06:48:21.952Z,31.67
2018-11-21T06:50:50.780Z,31.30
2018-11-21T06:53:19.441Z,30.70
2018-11-21T06:55:47.767Z,32.33
2018-11-21T06:58:16.056Z,36.00
2018-11-21T07:00:44.809Z,32.00
2018-11-21T07:03:13.823Z,28.33
2018-11-21T07:05:43.301Z,29.80
2018-11-21T07:08:12.545Z,29.13
2018-11-21T07:10:41.324Z,28.93
2018-11-21T07:13:11.243Z,29.07
2018-11-21T07:15:38.043Z,28.57
2018-11-21T07:18:07.465Z,29.47
2018-11-21T07:20:36.204Z,29.00
2018-11-21T07:23:05.004Z,29.33
2018-11-21T07:25:33.333Z,29.50
2018-11-21T07:28:01.632Z,28.87
2018-11-21T07:30:30.364Z,27.57
2018-11-21T07:32:58.668Z,27.37
2018-11-21T07:35:27.324Z,27.90
2018-11-21T07:37:55.624Z,27.20
2018-11-21T07:40:23.944Z,28.93
2018-11-21T07:42:52.245Z,28.33
2018-11-21T07:45:20.941Z,28.27
2018-11-21T07:47:49.316Z,29.33
2018-11-21T07:50:19.212Z,28.00
2018-11-21T07:52:47.608Z,28.63
2018-11-21T07:55:15.901Z,28.20
2018-11-21T07:57:52.128Z,27.67
2018-11-21T08:00:54.865Z,28.20
2018-11-21T08:03:24.214Z,28.50
2018-11-21T08:05:55.132Z,27.23
2018-11-21T08:08:51.780Z,27.03
2018-11-21T08:11:48.294Z,26.47
2018-11-21T08:14:35.765Z,25.63
2018-11-21T08:17:20.133Z,25.50
2018-11-21T08:20:20.312Z,25.80
2018-11-21T08:23:06.406Z,28.03
2018-11-21T08:26:03.161Z,26.40
2018-11-21T08:28:32.106Z,27.30
2018-11-21T08:31:00.468Z,26.13
2018-11-21T08:33:33.806Z,26.80
2018-11-21T08:35:58.024Z,26.70
2018-11-21T08:38:26.362Z,26.87
2018-11-21T08:40:54.692Z,26.03
2018-11-21T08:43:23.041Z,26.17
2018-11-21T08:45:51.367Z,26.47
2018-11-21T08:48:20.504Z,26.30
2018-11-21T08:50:48.844Z,25.13
2018-11-21T08:53:17.139Z,24.40
2018-11-21T08:55:45.507Z,23.43
2018-11-21T08:58:13.812Z,24.37
2018-11-21T09:00:42.429Z,24.17
2018-11-21T09:03:10.737Z,23.97
2018-11-21T09:05:39.691Z,24.17
2018-11-21T09:08:08.448Z,24.73
2018-11-21T09:10:36.832Z,25.03
2018-11-21T09:13:05.262Z,24.47
2018-11-21T09:15:33.550Z,24.70
2018-11-21T09:18:01.871Z,25.00
2018-11-21T09:20:30.479Z,24.43
2018-11-21T09:22:58.894Z,25.70
2018-11-21T09:25:28.096Z,25.47
2018-11-21T09:27:56.419Z,24.77
2018-11-21T09:30:24.735Z,25.73
2018-11-21T09:32:54.677Z,25.07
2018-11-21T09:35:23.066Z,25.10
2018-11-21T09:37:51.684Z,24.90
2018-11-21T09:40:21.364Z,23.37
2018-11-21T09:42:51.000Z,24.53
2018-11-21T09:45:20.475Z,23.37
2018-11-21T09:47:48.810Z,24.67
2018-11-21T09:50:19.389Z,25.83
2018-11-21T09:52:50.389Z,24.07
2018-11-21T09:55:16.963Z,24.63
2018-11-21T09:57:45.735Z,23.53
2018-11-21T10:00:52.047Z,23.93
2018-11-21T10:03:22.374Z,22.47
2018-11-21T10:05:53.278Z,23.73
2018-11-21T10:08:45.641Z,23.27
2018-11-21T10:11:14.743Z,23.90
2018-11-21T10:13:43.905Z,23.07
2018-11-21T10:16:12.204Z,24.23
2018-11-21T10:18:42.021Z,23.47
2018-11-21T10:21:12.008Z,25.77
2018-11-21T10:23:40.329Z,23.57
2018-11-21T10:26:08.699Z,23.57
2018-11-21T10:28:37.281Z,24.17
2018-11-21T10:31:06.008Z,23.87
2018-11-21T10:33:35.227Z,23.30
2018-11-21T10:36:03.817Z,24.37
2018-11-21T10:38:32.136Z,23.73
2018-11-21T10:41:00.424Z,25.70
2018-11-21T10:43:28.753Z,24.33
2018-11-21T10:45:57.044Z,23.23
2018-11-21T10:48:25.371Z,25.40
2018-11-21T10:50:54.052Z,24.63
2018-11-21T10:53:22.367Z,23.80
2018-11-21T10:55:50.984Z,24.27
2018-11-21T10:58:20.145Z,22.63
2018-11-21T11:01:06.511Z,24.77
2018-11-21T11:03:38.287Z,24.23
2018-11-21T11:06:25.440Z,24.67
2018-11-21T11:09:17.371Z,38.87
2018-11-21T11:12:23.515Z,27.20
2018-11-21T11:15:10.524Z,24.80
2018-11-21T11:17:53.758Z,31.23
2018-11-21T11:20:40.653Z,26.20
2018-11-21T11:23:37.500Z,22.87
2018-11-21T11:26:34.135Z,22.83
2018-11-21T11:29:31.234Z,23.17
2018-11-21T11:32:15.233Z,22.70
2018-11-21T11:34:55.119Z,22.83
2018-11-21T11:37:41.063Z,23.00
2018-11-21T11:40:31.512Z,23.10
2018-11-21T11:43:18.317Z,23.50
2018-11-21T11:46:18.199Z,23.37
2018-11-21T11:49:12.421Z,23.57
2018-11-21T11:51:58.331Z,22.83
2018-11-21T11:54:48.808Z,23.27
2018-11-21T11:57:35.360Z,23.37
2018-11-21T12:00:14.137Z,23.70
2018-11-21T12:03:05.594Z,22.83
2018-11-21T12:05:58.400Z,23.77
2018-11-21T12:08:44.288Z,22.73
2018-11-21T12:11:30.898Z,22.80
2018-11-21T12:14:17.092Z,21.97
2018-11-21T12:16:57.602Z,22.40
2018-11-21T12:19:51.747Z,23.20
2018-11-21T12:22:42.531Z,23.53
2018-11-21T12:25:38.876Z,23.47
2018-11-21T12:28:35.371Z,25.77
2018-11-21T12:31:21.810Z,24.03
2018-11-21T12:34:15.309Z,23.63
2018-11-21T12:37:18.138Z,25.20
2018-11-21T12:40:06.169Z,24.13
2018-11-21T12:42:53.703Z,24.67
2018-11-21T12:45:34.079Z,23.80
2018-11-21T12:48:30.701Z,24.50
2018-11-21T12:51:29.833Z,24.50
2018-11-21T12:54:13.212Z,24.23
2018-11-21T12:56:58.015Z,24.63
2018-11-21T12:59:44.866Z,24.23
2018-11-21T13:02:35.863Z,23.93
2018-11-21T13:05:22.077Z,23.93
2018-11-21T13:08:08.403Z,25.03
2018-11-21T13:10:58.552Z,22.77
2018-11-21T13:13:44.945Z,22.73
2018-11-21T13:16:38.224Z,22.27
2018-11-21T13:19:31.308Z,22.90
2018-11-21T13:22:18.806Z,22.63
2018-11-21T13:25:06.264Z,23.33
2018-11-21T13:27:53.324Z,23.00
2018-11-21T13:30:40.207Z,22.70
2018-11-21T13:33:19.356Z,21.93
2018-11-21T13:35:53.839Z,22.13
2018-11-21T13:38:57.016Z,23.17
2018-11-21T13:41:43.132Z,23.40
2018-11-21T13:44:20.121Z,23.20
2018-11-21T13:47:05.213Z,21.77
2018-11-21T13:49:53.599Z,23.50
2018-11-21T13:52:29.414Z,23.90
2018-11-21T13:54:59.102Z,23.70
2018-11-21T13:57:28.216Z,23.50
2018-11-21T13:59:56.975Z,22.83
2018-11-21T14:02:25.306Z,22.63
2018-11-21T14:04:53.595Z,23.00
2018-11-21T14:07:22.331Z,23.17
2018-11-21T14:09:50.635Z,21.97
2018-11-21T14:12:20.179Z,24.23
2018-11-21T14:14:48.910Z,22.77
2018-11-21T14:17:17.644Z,23.57
2018-11-21T14:19:46.388Z,22.47
2018-11-21T14:22:15.215Z,23.53
2018-11-21T14:24:44.223Z,24.53
2018-11-21T14:27:12.554Z,23.40
2018-11-21T14:29:41.676Z,23.90
2018-11-21T14:32:10.050Z,23.20
2018-11-21T14:34:38.346Z,24.03
2018-11-21T14:37:07.654Z,24.37
2018-11-21T14:39:36.345Z,25.30
2018-11-21T14:42:08.369Z,22.70
2018-11-21T14:44:32.973Z,23.17
2018-11-21T14:47:01.712Z,22.90
2018-11-21T14:49:30.035Z,22.30
2018-11-21T14:51:58.403Z,23.50
2018-11-21T14:54:26.718Z,21.90
2018-11-21T14:56:55.889Z,22.73
2018-11-21T14:59:25.511Z,30.73
2018-11-21T15:01:54.179Z,26.63
2018-11-21T15:04:22.671Z,28.03
2018-11-21T15:06:51.042Z,29.70
2018-11-21T15:09:19.352Z,28.73
2018-11-21T15:11:47.640Z,30.33
2018-11-21T15:14:16.044Z,25.53
2018-11-21T15:16:44.336Z,25.13
2018-11-21T15:19:12.648Z,26.83
2018-11-21T15:21:41.261Z,25.07
2018-11-21T15:24:09.985Z,24.23
2018-11-21T15:26:39.045Z,22.80
2018-11-21T15:29:07.724Z,23.37
2018-11-21T15:31:36.311Z,23.93
2018-11-21T15:34:04.915Z,23.07
2018-11-21T15:36:33.539Z,22.47
2018-11-21T15:39:01.955Z,23.50
2018-11-21T15:41:30.763Z,23.33
2018-11-21T15:43:59.075Z,25.07
2018-11-21T15:46:28.666Z,25.00
2018-11-21T15:48:57.423Z,25.70
2018-11-21T15:51:26.071Z,27.07
2018-11-21T15:53:54.395Z,24.30
2018-11-21T15:56:22.695Z,26.13
2018-11-21T15:58:51.019Z,26.33
2018-11-21T16:01:19.334Z,25.10
2018-11-21T16:03:48.133Z,25.70
2018-11-21T16:06:16.458Z,25.07
2018-11-21T16:08:45.059Z,26.40
2018-11-21T16:11:13.354Z,24.63
2018-11-21T16:13:43.033Z,23.80
2018-11-21T16:16:12.172Z,24.43
2018-11-21T16:18:40.823Z,24.30
2018-11-21T16:21:09.196Z,24.93
2018-11-21T16:23:38.317Z,25.67
2018-11-21T16:26:06.979Z,23.77
2018-11-21T16:28:36.482Z,22.63
2018-11-21T16:31:04.904Z,23.27
2018-11-21T16:33:33.989Z,26.13
2018-11-21T16:36:02.708Z,26.30
2018-11-21T16:38:31.775Z,27.53
2018-11-21T16:41:00.545Z,30.27
2018-11-21T16:43:29.116Z,25.33
2018-11-21T16:45:58.329Z,23.37
2018-11-21T16:48:27.938Z,25.20
2018-11-21T16:50:56.940Z,23.63
2018-11-21T16:53:26.310Z,27.13
2018-11-21T16:55:54.510Z,26.30
2018-11-21T16:58:23.292Z,26.33
2018-11-21T17:00:52.487Z,26.20
2018-11-21T17:03:20.792Z,24.87
2018-11-21T17:05:49.133Z,25.97
2018-11-21T17:08:18.932Z,26.53
2018-11-21T17:10:47.695Z,27.70
2018-11-21T17:13:16.534Z,27.53
2018-11-21T17:15:45.963Z,27.13
2018-11-21T17:18:14.451Z,28.83
2018-11-21T17:20:44.793Z,29.50
2018-11-21T17:23:13.806Z,27.70
2018-11-21T17:25:43.728Z,27.77
2018-11-21T17:28:12.597Z,26.57
2018-11-21T17:30:42.352Z,27.83
2018-11-21T17:33:11.788Z,26.57
2018-11-21T17:35:41.425Z,27.00
2018-11-21T17:38:10.183Z,28.53
2018-11-21T17:40:40.325Z,27.77
2018-11-21T17:43:09.846Z,34.37
2018-11-21T17:45:38.286Z,28.83
2018-11-21T17:48:06.829Z,26.90
2018-11-21T17:50:35.164Z,24.37
2018-11-21T17:53:04.665Z,25.87
2018-11-21T17:55:34.001Z,28.70
2018-11-21T17:58:02.308Z,27.43
2018-11-21T18:00:31.491Z,26.73
2018-11-21T18:02:59.921Z,23.93
2018-11-21T18:05:30.926Z,24.37
2018-11-21T18:08:00.105Z,25.97
2018-11-21T18:10:30.422Z,24.27
2018-11-21T18:12:58.716Z,24.53
2018-11-21T18:15:28.868Z,26.77
2018-11-21T18:17:58.248Z,28.87
2018-11-21T18:20:27.293Z,26.47
2018-11-21T18:22:56.103Z,35.97
2018-11-21T18:25:36.378Z,28.20
2018-11-21T18:28:05.460Z,27.57
2018-11-21T18:30:34.532Z,27.40
2018-11-21T18:33:03.751Z,27.10
2018-11-21T18:35:35.449Z,25.90
2018-11-21T18:38:01.361Z,27.37
2018-11-21T18:40:30.717Z,26.37
2018-11-21T18:42:59.119Z,25.97
2018-11-21T18:45:34.360Z,25.97
2018-11-21T18:48:03.926Z,25.53
2018-11-21T18:50:32.699Z,23.57
2018-11-21T18:53:04.171Z,24.10
2018-11-21T18:55:43.711Z,25.33
2018-11-21T18:58:42.515Z,24.43
2018-11-21T19:01:12.260Z,23.00
2018-11-21T19:03:41.081Z,24.57
2018-11-21T19:06:09.991Z,22.87
2018-11-21T19:08:38.579Z,23.03
2018-11-21T19:11:07.960Z,23.33
2018-11-21T19:13:36.386Z,27.77
2018-11-21T19:16:05.209Z,29.53
2018-11-21T19:18:34.513Z,24.53
2018-11-21T19:21:03.664Z,24.97
2018-11-21T19:23:32.676Z,24.53
2018-11-21T19:26:01.738Z,22.80
2018-11-21T19:28:30.648Z,23.63
2018-11-21T19:30:58.943Z,24.73
2018-11-21T19:33:27.435Z,25.77
2018-11-21T19:35:55.817Z,25.73
2018-11-21T19:38:25.213Z,25.07
2018-11-21T19:40:53.867Z,25.17
2018-11-21T19:43:22.297Z,25.30
2018-11-21T19:45:51.533Z,24.97
2018-11-21T19:48:19.968Z,26.40
2018-11-21T19:50:48.729Z,23.93
2018-11-21T19:53:17.053Z,24.00
2018-11-21T19:55:45.781Z,24.43
2018-11-21T19:58:14.929Z,24.80
2018-11-21T20:00:44.032Z,25.67
